Time;durP1;ratioP1;P1;durP2;ratioP2;P2;SDS_P1;SDS_P2;PMS_P1;PMS_P2;Temp;Humidity;BMP_temperature;BMP_pressure;BME280_temperature;BME280_humidity;BME280_pressure;Samples;Min_cycle;Max_cycle;Signal;HPM_P1;HPM_P2
2022/07/17 00:01:23;;;;;;;;;;;;;;;13.88;100.00;98919.16;1729921;82;24489;-87
2022/07/17 00:03:49;;;;;;;;;;;;;;;13.85;100.00;98924.67;1730798;82;20535;-87
2022/07/17 00:06:17;;;;;;;;;;;;;;;13.81;100.00;98918.78;1672373;84;20745;-86
2022/07/17 00:08:44;;;;;;;;;;;;;;;13.78;100.00;98917.23;1709377;82;22115;-87
2022/07/17 00:11:16;;;;;;;;;;;;;;;13.77;100.00;98926.08;1709633;82;21660;-87
2022/07/17 00:13:51;;;;;;;;;;;;;;;13.75;100.00;98926.66;1714988;82;24724;-86
2022/07/17 00:16:15;;;;;;;;;;;;;;;13.75;100.00;98922.71;1712422;82;20316;-87
2022/07/17 00:18:42;;;;;;;;;;;;;;;13.71;100.00;98925.22;1708702;82;24983;-86
2022/07/17 00:21:16;;;;;;;;;;;;;;;13.69;100.00;98923.16;1709152;82;20250;-86
2022/07/17 00:23:45;;;;;;;;;;;;;;;13.67;100.00;98929.51;1708658;82;26044;-86
2022/07/17 00:26:13;;;;;;;;;;;;;;;13.64;100.00;98931.88;1714364;83;20863;-86
2022/07/17 00:28:39;;;;;;;;;;;;;;;13.63;100.00;98922.34;1709310;82;20227;-87
2022/07/17 00:31:09;;;;;;;;;;;;;;;13.60;100.00;98923.86;1711608;82;20249;-86
2022/07/17 00:33:35;;;;;;;;;;;;;;;13.52;100.00;98926.23;1713344;82;22708;-86
2022/07/17 00:36:05;;;;;;;;;;;;;;;13.54;100.00;98927.41;1709045;82;26048;-86
2022/07/17 00:38:28;;;;;;;;;;;;;;;13.52;100.00;98930.19;1708142;82;25195;-86
2022/07/17 00:40:57;;;;;;;;;;;;;;;13.50;100.00;98932.55;1708989;82;20221;-86
2022/07/17 00:43:28;;;;;;;;;;;;;;;13.48;100.00;98937.91;1713391;82;24896;-87
2022/07/17 00:45:57;;;;;;;;;;;;;;;13.42;100.00;98929.16;1713453;82;22056;-87
2022/07/17 00:48:29;;;;;;;;;;;;;;;13.44;100.00;98931.67;1709666;84;27003;-86
2022/07/17 00:50:56;;;;;;;;;;;;;;;13.35;100.00;98931.42;1708682;82;24398;-86
2022/07/17 00:53:22;;;;;;;;;;;;;;;13.35;100.00;98934.05;1714281;82;20199;-87
2022/07/17 00:55:48;;;;;;;;;;;;;;;13.38;100.00;98937.75;1707788;82;20397;-86
2022/07/17 00:58:27;;;;;;;;;;;;;;;13.43;100.00;98941.35;1709201;82;21972;-86
2022/07/17 01:00:56;;;;;;;;;;;;;;;13.47;100.00;98938.05;1707788;84;26839;-86
2022/07/17 01:03:23;;;;;;;;;;;;;;;13.43;100.00;98936.09;1709533;82;24481;-86
2022/07/17 01:05:49;;;;;;;;;;;;;;;13.43;100.00;98943.14;1687547;83;20208;-87
2022/07/17 01:08:15;;;;;;;;;;;;;;;13.46;100.00;98943.78;1708042;83;20207;-87
2022/07/17 01:10:42;;;;;;;;;;;;;;;13.50;100.00;98946.53;1703774;83;21989;-86
2022/07/17 01:13:08;;;;;;;;;;;;;;;13.51;100.00;98947.38;1707310;83;26006;-86
2022/07/17 01:15:38;;;;;;;;;;;;;;;13.48;100.00;98944.95;1697845;84;24466;-86
2022/07/17 01:18:06;;;;;;;;;;;;;;;13.42;100.00;98949.37;1696602;84;20256;-86
2022/07/17 01:20:33;;;;;;;;;;;;;;;13.43;100.00;98954.50;1710506;83;24769;-86
2022/07/17 01:23:02;;;;;;;;;;;;;;;13.44;100.00;98956.19;1696261;83;22796;-86
2022/07/17 01:25:32;;;;;;;;;;;;;;;13.43;100.00;98951.88;1697994;84;25858;-86
2022/07/17 01:27:59;;;;;;;;;;;;;;;13.45;100.00;98951.77;1697351;84;25088;-86
2022/07/17 01:30:25;;;;;;;;;;;;;;;13.42;100.00;98950.69;1708404;83;20537;-86
2022/07/17 01:32:51;;;;;;;;;;;;;;;13.44;100.00;98948.77;1701739;83;20273;-86
2022/07/17 01:35:20;;;;;;;;;;;;;;;13.42;100.00;98946.24;1721721;82;21789;-85
2022/07/17 01:37:50;;;;;;;;;;;;;;;13.42;100.00;98955.45;1711612;82;25911;-86
2022/07/17 01:40:28;;;;;;;;;;;;;;;13.37;100.00;98951.84;1698265;83;25206;-87
2022/07/17 01:43:00;;;;;;;;;;;;;;;13.38;100.00;98955.31;1707218;83;20359;-87
2022/07/17 01:45:29;;;;;;;;;;;;;;;13.42;100.00;98955.45;1707509;83;24931;-87
2022/07/17 01:47:55;;;;;;;;;;;;;;;13.46;100.00;98952.14;1701498;83;21888;-87
2022/07/17 01:50:21;;;;;;;;;;;;;;;13.47;100.00;98957.30;1699975;83;21067;-88
2022/07/17 01:52:54;;;;;;;;;;;;;;;13.49;100.00;98950.11;1697500;84;20903;-87
2022/07/17 01:55:20;;;;;;;;;;;;;;;13.49;100.00;98952.73;1702964;83;20390;-87
2022/07/17 01:57:49;;;;;;;;;;;;;;;13.51;100.00;98948.22;1702571;83;20444;-87
2022/07/17 02:00:17;;;;;;;;;;;;;;;13.52;100.00;98946.43;1708136;83;22132;-86
2022/07/17 02:02:43;;;;;;;;;;;;;;;13.53;100.00;98948.92;1706071;83;25995;-88
2022/07/17 02:05:16;;;;;;;;;;;;;;;13.51;100.00;98954.80;1698475;84;25055;-86
2022/07/17 02:07:39;;;;;;;;;;;;;;;13.48;100.00;98954.16;1696573;83;20244;-86
2022/07/17 02:10:07;;;;;;;;;;;;;;;13.44;100.00;98950.92;1704591;83;24867;-86
2022/07/17 02:12:32;;;;;;;;;;;;;;;13.42;100.00;98946.24;1700767;83;22181;-86
2022/07/17 02:14:58;;;;;;;;;;;;;;;13.41;100.00;98947.22;1703809;83;21115;-86
2022/07/17 02:17:24;;;;;;;;;;;;;;;13.42;100.00;98941.49;1703879;83;20833;-86
2022/07/17 02:19:50;;;;;;;;;;;;;;;13.37;100.00;98949.69;1705207;83;20372;-86
2022/07/17 02:22:16;;;;;;;;;;;;;;;13.35;100.00;98950.30;1706799;83;24803;-86
2022/07/17 02:24:46;;;;;;;;;;;;;;;13.33;100.00;98949.55;1702761;83;21960;-86
2022/07/17 02:27:11;;;;;;;;;;;;;;;13.34;100.00;98956.02;1704806;83;26285;-86
2022/07/17 02:29:40;;;;;;;;;;;;;;;13.28;100.00;98964.82;1707249;82;20318;-86
2022/07/17 02:32:06;;;;;;;;;;;;;;;13.25;100.00;98958.48;1695737;84;20363;-86
2022/07/17 02:34:32;;;;;;;;;;;;;;;13.22;100.00;98967.89;1696615;84;20218;-86
2022/07/17 02:37:10;;;;;;;;;;;;;;;13.20;100.00;98961.92;1703836;83;20302;-86
2022/07/17 02:39:35;;;;;;;;;;;;;;;13.21;100.00;98966.20;1711757;83;26108;-86
2022/07/17 02:42:03;;;;;;;;;;;;;;;13.22;100.00;98961.31;1703772;83;20872;-85
2022/07/17 02:44:30;;;;;;;;;;;;;;;13.23;100.00;98959.06;1708742;83;20505;-85
2022/07/17 02:46:57;;;;;;;;;;;;;;;13.23;100.00;98957.27;1707973;82;24384;-85
2022/07/17 02:49:26;;;;;;;;;;;;;;;13.21;100.00;98962.27;1705711;83;22047;-85
2022/07/17 02:51:52;;;;;;;;;;;;;;;13.19;100.00;98957.61;1701717;83;25975;-86
2022/07/17 02:54:20;;;;;;;;;;;;;;;13.18;100.00;98960.71;1706082;83;24530;-86
2022/07/17 02:56:46;;;;;;;;;;;;;;;13.18;100.00;98963.34;1703363;82;20250;-86
2022/07/17 02:59:12;;;;;;;;;;;;;;;13.15;100.00;98964.86;1707110;83;20250;-86
2022/07/17 03:01:38;;;;;;;;;;;;;;;13.17;100.00;98963.44;1698012;84;20458;-86
2022/07/17 03:04:04;;;;;;;;;;;;;;;13.15;100.00;98966.64;1700507;83;20982;-86
2022/07/17 03:06:30;;;;;;;;;;;;;;;13.13;100.00;98970.72;1701006;83;20864;-86
2022/07/17 03:08:56;;;;;;;;;;;;;;;13.14;100.00;98971.56;1721534;82;20230;-86
2022/07/17 03:11:22;;;;;;;;;;;;;;;13.14;100.00;98970.25;1702295;83;20812;-86
2022/07/17 03:13:51;;;;;;;;;;;;;;;13.14;100.00;98979.45;1702491;82;20246;-86
2022/07/17 03:16:17;;;;;;;;;;;;;;;13.13;100.00;98976.45;1702314;84;26130;-87
2022/07/17 03:18:46;;;;;;;;;;;;;;;13.11;100.00;98976.52;1710129;82;25320;-86
2022/07/17 03:21:12;;;;;;;;;;;;;;;13.10;100.00;98976.14;1699886;83;20220;-86
2022/07/17 03:23:37;;;;;;;;;;;;;;;13.07;100.00;98983.41;1702304;83;20249;-88
2022/07/17 03:26:04;;;;;;;;;;;;;;;13.04;100.00;98992.34;1701835;83;20234;-88
2022/07/17 03:28:30;;;;;;;;;;;;;;;13.03;100.00;98987.22;1702277;84;26091;-88
2022/07/17 03:30:56;;;;;;;;;;;;;;;13.07;100.00;98997.87;1700026;84;20309;-88
2022/07/17 03:33:28;;;;;;;;;;;;;;;13.10;100.00;98998.95;1701141;84;20230;-87
2022/07/17 03:35:54;;;;;;;;;;;;;;;13.11;100.00;98999.33;1702495;84;24791;-88
2022/07/17 03:38:20;;;;;;;;;;;;;;;13.10;100.00;98998.95;1702274;83;21098;-88
2022/07/17 03:40:50;;;;;;;;;;;;;;;13.16;100.00;98999.39;1717038;82;20946;-87
2022/07/17 03:43:16;;;;;;;;;;;;;;;13.28;100.00;99003.78;1723060;82;24520;-87
2022/07/17 03:45:48;;;;;;;;;;;;;;;13.42;100.00;99005.91;1718816;82;20179;-87
2022/07/17 03:48:16;;;;;;;;;;;;;;;13.57;100.00;99008.73;1717609;82;24868;-87
2022/07/17 03:50:47;;;;;;;;;;;;;;;13.78;100.00;99009.78;1702761;84;22067;-87
2022/07/17 03:53:13;;;;;;;;;;;;;;;14.01;100.00;99009.40;1712364;82;26208;-87
2022/07/17 03:55:45;;;;;;;;;;;;;;;14.21;100.00;99007.42;1713577;82;24396;-87
2022/07/17 03:58:15;;;;;;;;;;;;;;;14.37;100.00;99007.97;1711352;82;20249;-87
2022/07/17 04:00:41;;;;;;;;;;;;;;;14.51;100.00;99004.30;1712977;82;24803;-86
2022/07/17 04:03:07;;;;;;;;;;;;;;;14.62;100.00;99014.81;1702094;83;20211;-86
2022/07/17 04:05:33;;;;;;;;;;;;;;;14.73;100.00;99015.33;1708611;82;21156;-86
2022/07/17 04:07:59;;;;;;;;;;;;;;;14.85;100.00;99019.63;1720013;81;20248;-87
2022/07/17 04:10:25;;;;;;;;;;;;;;;14.97;100.00;99026.58;1735645;82;20332;-86
2022/07/17 04:12:57;;;;;;;;;;;;;;;15.12;100.00;99024.05;1732273;82;20819;-86
2022/07/17 04:18:08;;;;;;;;;;;;;;;15.44;100.00;99028.08;1733256;82;26008;-87
2022/07/17 04:20:34;;;;;;;;;;;;;;;15.58;100.00;99028.33;1727847;82;24480;-86
2022/07/17 04:23:04;;;;;;;;;;;;;;;15.75;100.00;99029.12;1734210;82;20926;-86
2022/07/17 04:25:31;;;;;;;;;;;;;;;15.87;100.00;99032.90;1743398;82;24802;-86
2022/07/17 04:27:57;;;;;;;;;;;;;;;16.01;100.00;99030.46;1741568;82;21628;-86
2022/07/17 04:30:23;;;;;;;;;;;;;;;16.05;100.00;99037.64;1737233;82;21533;-86
2022/07/17 04:32:49;;;;;;;;;;;;;;;16.07;100.00;99037.04;1735868;82;20883;-86
2022/07/17 04:35:15;;;;;;;;;;;;;;;16.12;100.00;99034.38;1734199;81;20179;-86
2022/07/17 04:37:43;;;;;;;;;;;;;;;16.11;100.00;99037.97;1728631;82;24819;-87
2022/07/17 04:40:15;;;;;;;;;;;;;;;16.10;100.00;99036.77;1730822;82;21968;-87
2022/07/17 04:42:45;;;;;;;;;;;;;;;16.08;100.00;99045.32;1730345;82;22709;-87
2022/07/17 04:45:13;;;;;;;;;;;;;;;16.01;100.00;99046.78;1726828;82;24509;-87
2022/07/17 04:47:39;;;;;;;;;;;;;;;15.92;100.00;99047.55;1735073;82;20345;-87
2022/07/17 04:50:05;;;;;;;;;;;;;;;15.86;100.00;99051.05;1725454;82;24713;-87
2022/07/17 04:52:31;;;;;;;;;;;;;;;15.81;100.00;99049.74;1729157;82;22039;-87
2022/07/17 04:54:57;;;;;;;;;;;;;;;15.79;100.00;99055.62;1726816;82;21054;-87
2022/07/17 04:57:23;;;;;;;;;;;;;;;15.75;100.00;99055.52;1734653;80;20321;-87
2022/07/17 04:59:49;;;;;;;;;;;;;;;15.69;100.00;99057.33;1724779;82;20222;-87
2022/07/17 05:02:15;;;;;;;;;;;;;;;15.61;100.00;99057.09;1733021;82;20269;-85
2022/07/17 05:04:41;;;;;;;;;;;;;;;15.58;100.00;99057.36;1730585;82;21952;-83
2022/07/17 05:07:07;;;;;;;;;;;;;;;15.57;100.00;99060.47;1732409;82;26817;-83
2022/07/17 05:09:33;;;;;;;;;;;;;;;15.53;100.00;99060.37;1714454;82;20242;-83
2022/07/17 05:11:59;;;;;;;;;;;;;;;15.49;100.00;99059.72;1712975;82;20223;-83
2022/07/17 05:14:25;;;;;;;;;;;;;;;15.46;100.00;99059.98;1689838;84;24725;-83
2022/07/17 05:16:51;;;;;;;;;;;;;;;15.40;100.00;99063.09;1711785;82;21956;-83
2022/07/17 05:19:17;;;;;;;;;;;;;;;15.36;100.00;99068.75;1703192;83;26053;-83
2022/07/17 05:21:46;;;;;;;;;;;;;;;15.34;100.00;99067.54;1701246;84;24407;-83
2022/07/17 05:24:16;;;;;;;;;;;;;;;15.31;100.00;99070.91;1708526;82;20255;-84
2022/07/17 05:26:42;;;;;;;;;;;;;;;15.33;100.00;99071.61;1705098;82;25538;-84
2022/07/17 05:29:09;;;;;;;;;;;;;;;15.34;100.00;99070.17;1703169;84;35189;-84
2022/07/17 05:31:35;;;;;;;;;;;;;;;15.38;100.00;99076.88;1712600;82;21666;-84
2022/07/17 05:34:01;;;;;;;;;;;;;;;15.47;100.00;99072.69;1714927;82;20964;-84
2022/07/17 05:36:29;;;;;;;;;;;;;;;15.50;100.00;99077.23;1705165;83;20242;-84
2022/07/17 05:38:55;;;;;;;;;;;;;;;15.56;100.00;99079.05;1716906;82;24737;-84
2022/07/17 05:41:21;;;;;;;;;;;;;;;15.59;100.00;99078.82;1704736;83;20833;-84
2022/07/17 05:43:47;;;;;;;;;;;;;;;15.63;100.00;99081.56;1704511;82;21057;-84
2022/07/17 05:46:15;;;;;;;;;;;;;;;15.67;100.00;99082.98;1712708;82;24413;-84
2022/07/17 05:48:41;;;;;;;;;;;;;;;15.75;100.00;99086.70;1718459;81;20681;-84
2022/07/17 05:51:06;;;;;;;;;;;;;;;15.87;100.00;99087.52;1711040;82;24765;-83
2022/07/17 05:53:32;;;;;;;;;;;;;;;15.94;100.00;99086.04;1704755;82;20873;-84
2022/07/17 05:55:59;;;;;;;;;;;;;;;15.98;100.00;99086.17;1705072;82;20970;-84
2022/07/17 05:58:26;;;;;;;;;;;;;;;16.04;100.00;99092.75;1712952;82;24634;-83
2022/07/17 06:00:53;;;;;;;;;;;;;;;16.03;100.00;99087.95;1709927;82;20314;-84
2022/07/17 06:03:21;;;;;;;;;;;;;;;16.06;100.00;99091.64;1713061;82;24861;-84
2022/07/17 06:05:49;;;;;;;;;;;;;;;16.10;100.00;99095.70;1718584;82;21575;-84
2022/07/17 06:08:17;;;;;;;;;;;;;;;16.11;100.00;99100.02;1709855;81;26099;-84
2022/07/17 06:10:43;;;;;;;;;;;;;;;16.10;100.00;99107.59;1706543;82;24527;-84
2022/07/17 06:13:08;;;;;;;;;;;;;;;16.11;100.00;99099.19;1717378;82;20336;-84
2022/07/17 06:15:35;;;;;;;;;;;;;;;16.14;100.00;99099.80;1709305;82;20265;-83
2022/07/17 06:18:02;;;;;;;;;;;;;;;16.15;100.00;99105.88;1708871;82;22144;-83
2022/07/17 06:20:28;;;;;;;;;;;;;;;16.15;100.00;99104.09;1703667;82;26050;-83
2022/07/17 06:22:54;;;;;;;;;;;;;;;16.14;100.00;99109.03;1715043;82;24668;-83
2022/07/17 06:25:22;;;;;;;;;;;;;;;16.11;100.00;99110.59;1724530;81;20343;-84
2022/07/17 06:27:48;;;;;;;;;;;;;;;16.10;100.00;99110.70;1712575;82;24871;-84
2022/07/17 06:30:15;;;;;;;;;;;;;;;16.07;100.00;99106.53;1711948;82;20240;-84
2022/07/17 06:32:41;;;;;;;;;;;;;;;16.14;100.00;99123.56;1720037;82;25489;-84
2022/07/17 06:35:07;;;;;;;;;;;;;;;16.17;100.00;99115.38;1711470;82;24494;-84
2022/07/17 06:37:33;;;;;;;;;;;;;;;16.15;100.00;99120.41;1709919;82;20544;-84
2022/07/17 06:39:59;;;;;;;;;;;;;;;16.13;100.00;99124.52;1714909;82;20777;-84
2022/07/17 06:42:25;;;;;;;;;;;;;;;16.17;100.00;99127.73;1705544;82;22172;-84
2022/07/17 06:44:51;;;;;;;;;;;;;;;16.22;100.00;99121.59;1707168;82;20908;-84
2022/07/17 06:47:17;;;;;;;;;;;;;;;16.27;100.00;99124.70;1704324;82;21758;-84
2022/07/17 06:49:43;;;;;;;;;;;;;;;16.32;100.00;99119.87;1709327;82;20250;-84
2022/07/17 06:52:11;;;;;;;;;;;;;;;16.40;100.00;99124.53;1711351;82;25016;-84
2022/07/17 06:54:39;;;;;;;;;;;;;;;16.41;100.00;99126.22;1706646;81;21932;-84
2022/07/17 06:57:04;;;;;;;;;;;;;;;16.45;100.00;99127.15;1714037;82;26057;-84
2022/07/17 06:59:31;;;;;;;;;;;;;;;16.51;100.00;99125.80;1712662;82;20242;-83
2022/07/17 07:01:58;;;;;;;;;;;;;;;16.56;100.00;99123.61;1715680;82;20208;-83
2022/07/17 07:04:23;;;;;;;;;;;;;;;16.53;100.00;99119.41;1712868;82;24835;-83
2022/07/17 07:06:49;;;;;;;;;;;;;;;16.62;100.00;99117.37;1712217;81;20230;-84
2022/07/17 07:09:15;;;;;;;;;;;;;;;16.71;100.00;99117.07;1713837;82;20972;-84
2022/07/17 07:11:41;;;;;;;;;;;;;;;16.76;100.00;99121.97;1703473;83;20261;-85
2022/07/17 07:14:08;;;;;;;;;;;;;;;16.82;100.00;99126.26;1707341;82;20337;-84
2022/07/17 07:16:34;;;;;;;;;;;;;;;16.84;100.00;99129.63;1709560;82;24886;-84
2022/07/17 07:19:00;;;;;;;;;;;;;;;16.91;100.00;99129.44;1715359;82;22083;-84
2022/07/17 07:21:26;;;;;;;;;;;;;;;16.92;100.00;99125.83;1717892;82;26130;-84
2022/07/17 07:23:56;;;;;;;;;;;;;;;17.03;100.00;99127.08;1700982;82;24466;-84
2022/07/17 07:26:22;;;;;;;;;;;;;;;17.13;100.00;99120.03;1716105;82;20712;-84
2022/07/17 07:28:48;;;;;;;;;;;;;;;17.21;100.00;99126.48;1709160;82;24500;-84
2022/07/17 07:31:16;;;;;;;;;;;;;;;17.25;100.00;99126.08;1662073;84;22722;-84
2022/07/17 07:33:49;;;;;;;;;;;;;;;17.35;100.00;99126.11;1714544;82;26718;-83
2022/07/17 07:36:15;;;;;;;;;;;;;;;17.45;100.00;99130.50;1714244;82;24435;-85
2022/07/17 07:38:41;;;;;;;;;;;;;;;17.54;100.00;99131.50;1713826;82;20304;-85
2022/07/17 07:41:07;;;;;;;;;;;;;;;17.54;100.00;99134.14;1709121;82;20768;-85
2022/07/17 07:43:33;;;;;;;;;;;;;;;17.58;100.00;99139.52;1705260;83;20884;-85
2022/07/17 07:45:59;;;;;;;;;;;;;;;17.63;100.00;99146.59;1713049;82;21136;-85
2022/07/17 07:48:25;;;;;;;;;;;;;;;17.68;100.00;99147.03;1703818;83;20843;-85
2022/07/17 07:50:51;;;;;;;;;;;;;;;17.70;100.00;99149.55;1703890;82;20860;-84
2022/07/17 07:53:17;;;;;;;;;;;;;;;17.76;100.00;99146.38;1704787;83;20868;-84
2022/07/17 07:55:43;;;;;;;;;;;;;;;17.83;100.00;99148.36;1704676;83;21998;-84
2022/07/17 07:58:10;;;;;;;;;;;;;;;17.86;100.00;99141.94;1704827;82;20973;-84
2022/07/17 08:00:39;;;;;;;;;;;;;;;17.86;100.00;99145.91;1704922;82;24678;-83
2022/07/17 08:03:06;;;;;;;;;;;;;;;17.88;100.00;99146.14;1709223;82;20251;-84
2022/07/17 08:05:32;;;;;;;;;;;;;;;17.98;100.00;99148.80;1709340;82;24757;-84
2022/07/17 08:07:59;;;;;;;;;;;;;;;18.09;100.00;99142.06;1709036;81;22011;-84
2022/07/17 08:10:25;;;;;;;;;;;;;;;18.19;100.00;99140.25;1708165;82;26127;-83
2022/07/17 08:12:51;;;;;;;;;;;;;;;18.30;100.00;99141.94;1708302;82;24476;-85
2022/07/17 08:15:19;;;;;;;;;;;;;;;18.39;100.00;99146.39;1709811;84;20360;-84
2022/07/17 08:17:45;;;;;;;;;;;;;;;18.45;100.00;99148.50;1707523;82;24901;-84
2022/07/17 08:20:12;;;;;;;;;;;;;;;18.54;100.00;99149.49;1707407;84;22694;-84
2022/07/17 08:22:37;;;;;;;;;;;;;;;18.67;100.00;99151.38;1709592;84;26043;-84
2022/07/17 08:25:04;;;;;;;;;;;;;;;18.74;100.00;99145.88;1707035;82;20329;-84
2022/07/17 08:27:31;;;;;;;;;;;;;;;18.76;100.00;99151.37;1710058;82;20264;-84
2022/07/17 08:29:57;;;;;;;;;;;;;;;18.78;100.00;99151.23;1705905;83;24823;-83
2022/07/17 08:32:23;;;;;;;;;;;;;;;18.86;100.00;99151.38;1707737;82;20242;-82
2022/07/17 08:34:49;;;;;;;;;;;;;;;18.98;100.00;99152.91;1709571;82;20981;-82
2022/07/17 08:37:15;;;;;;;;;;;;;;;18.99;100.00;99151.05;1709414;83;20276;-83
2022/07/17 08:39:41;;;;;;;;;;;;;;;19.03;100.00;99148.00;1708657;82;20314;-83
2022/07/17 08:42:07;;;;;;;;;;;;;;;19.16;100.00;99157.80;1709379;84;20456;-84
2022/07/17 08:44:33;;;;;;;;;;;;;;;19.23;99.70;99161.56;1708254;82;21975;-84
2022/07/17 08:47:00;;;;;;;;;;;;;;;19.31;99.03;99158.16;1709399;82;20962;-84
2022/07/17 08:49:26;;;;;;;;;;;;;;;19.46;98.54;99150.14;1707952;82;25020;-83
2022/07/17 08:51:55;;;;;;;;;;;;;;;19.67;98.44;99157.88;1706516;82;20550;-83
2022/07/17 08:54:22;;;;;;;;;;;;;;;19.75;97.74;99162.42;1709918;82;25547;-84
2022/07/17 08:56:48;;;;;;;;;;;;;;;19.81;96.76;99164.01;1705685;82;22652;-83
2022/07/17 08:59:14;;;;;;;;;;;;;;;19.90;96.08;99163.14;1707294;82;21110;-82
2022/07/17 09:01:40;;;;;;;;;;;;;;;20.01;95.64;99168.25;1706727;82;20982;-83
2022/07/17 09:04:07;;;;;;;;;;;;;;;20.03;94.88;99164.09;1708994;83;20249;-83
2022/07/17 09:06:33;;;;;;;;;;;;;;;20.02;93.92;99165.91;1709676;82;24886;-83
2022/07/17 09:09:07;;;;;;;;;;;;;;;19.99;92.94;99166.72;1708875;82;21900;-83
2022/07/17 09:11:50;;;;;;;;;;;;;;;20.00;92.27;99164.41;1704126;82;26866;-83
2022/07/17 09:14:16;;;;;;;;;;;;;;;20.14;92.12;99159.06;1702730;82;24647;-83
2022/07/17 09:16:52;;;;;;;;;;;;;;;20.25;91.68;99167.66;1715742;82;20183;-83
2022/07/17 09:19:29;;;;;;;;;;;;;;;20.35;91.21;99166.30;1706089;82;24864;-84
2022/07/17 09:22:08;;;;;;;;;;;;;;;20.39;90.52;99169.86;1709099;82;22136;-83
2022/07/17 09:24:44;;;;;;;;;;;;;;;20.37;89.48;99166.50;1702992;82;26736;-83
2022/07/17 09:27:11;;;;;;;;;;;;;;;20.35;88.52;99169.79;1705537;84;24691;-83
2022/07/17 09:29:54;;;;;;;;;;;;;;;20.30;87.44;99168.05;1711019;82;20557;-83
2022/07/17 09:32:20;;;;;;;;;;;;;;;20.36;86.91;99170.14;1715635;82;25461;-83
2022/07/17 09:34:48;;;;;;;;;;;;;;;20.31;85.99;99163.11;1712443;82;22089;-83
2022/07/17 09:37:14;;;;;;;;;;;;;;;20.48;85.86;99162.78;1705433;83;26684;-83
2022/07/17 09:39:41;;;;;;;;;;;;;;;20.68;85.67;99172.75;1710002;82;24491;-83
2022/07/17 09:42:09;;;;;;;;;;;;;;;20.73;85.02;99178.48;1712947;81;20596;-83
2022/07/17 09:44:35;;;;;;;;;;;;;;;20.74;84.26;99180.13;1704744;83;24794;-83
2022/07/17 09:47:02;;;;;;;;;;;;;;;20.72;83.41;99177.64;1710578;82;20840;-83
2022/07/17 09:49:28;;;;;;;;;;;;;;;20.75;82.87;99174.66;1710604;82;26020;-84
2022/07/17 09:51:54;;;;;;;;;;;;;;;20.78;82.51;99177.00;1713368;82;20907;-84
2022/07/17 09:54:21;;;;;;;;;;;;;;;20.76;81.79;99171.02;1709323;82;20250;-84
2022/07/17 09:56:51;;;;;;;;;;;;;;;20.77;81.03;99173.19;1706257;82;24987;-84
2022/07/17 09:59:17;;;;;;;;;;;;;;;20.78;80.53;99153.58;1707282;82;22118;-84
2022/07/17 10:01:45;;;;;;;;;;;;;;;21.01;80.30;99158.72;1709650;82;25980;-83
2022/07/17 10:04:11;;;;;;;;;;;;;;;21.23;80.43;99161.40;1704530;82;24473;-83
2022/07/17 10:06:37;;;;;;;;;;;;;;;21.31;79.55;99160.63;1712928;82;20219;-84
2022/07/17 10:09:05;;;;;;;;;;;;;;;21.26;78.49;99160.61;1701130;82;25115;-85
2022/07/17 10:11:32;;;;;;;;;;;;;;;21.37;78.12;99165.33;1697189;83;21965;-84
2022/07/17 10:14:06;;;;;;;;;;;;;;;21.45;77.61;99165.36;1697122;83;26047;-84
2022/07/17 10:16:36;;;;;;;;;;;;;;;21.39;76.74;99172.64;1694635;83;24729;-84
2022/07/17 10:19:02;;;;;;;;;;;;;;;21.36;75.85;99177.80;1701923;83;20286;-83
2022/07/17 10:21:30;;;;;;;;;;;;;;;21.42;75.26;99173.18;1705148;83;24805;-84
2022/07/17 10:23:58;;;;;;;;;;;;;;;21.50;74.43;99169.71;1698376;84;22772;-84
2022/07/17 10:26:36;;;;;;;;;;;;;;;21.62;73.59;99167.11;1710930;83;26004;-83
2022/07/17 10:29:03;;;;;;;;;;;;;;;21.78;73.09;99170.34;1697291;83;24493;-84
2022/07/17 10:31:39;;;;;;;;;;;;;;;21.97;72.67;99165.64;1697126;83;20484;-84
2022/07/17 10:34:06;;;;;;;;;;;;;;;22.15;72.57;99167.38;1693766;83;24903;-84
2022/07/17 10:36:36;;;;;;;;;;;;;;;22.25;72.17;99172.05;1696828;84;21966;-84
2022/07/17 10:39:16;;;;;;;;;;;;;;;22.21;71.56;99167.53;1701953;83;26768;-84
2022/07/17 10:41:43;;;;;;;;;;;;;;;22.07;70.53;99171.67;1698811;83;25343;-84
2022/07/17 10:44:09;;;;;;;;;;;;;;;22.10;70.33;99164.67;1701160;83;20521;-84
2022/07/17 10:46:36;;;;;;;;;;;;;;;22.10;69.85;99162.50;1703992;83;24848;-85
2022/07/17 10:49:05;;;;;;;;;;;;;;;21.98;68.87;99168.63;1700557;83;22103;-84
2022/07/17 10:51:34;;;;;;;;;;;;;;;22.15;68.61;99173.51;1698109;83;26060;-84
2022/07/17 10:54:01;;;;;;;;;;;;;;;22.34;68.12;99167.91;1696778;83;24592;-84
2022/07/17 10:56:27;;;;;;;;;;;;;;;22.47;67.76;99162.09;1703461;83;20596;-84
2022/07/17 10:58:56;;;;;;;;;;;;;;;22.62;67.36;99161.78;1697300;83;20237;-84
2022/07/17 11:01:22;;;;;;;;;;;;;;;22.69;66.91;99161.45;1706866;83;21970;-84
2022/07/17 11:03:52;;;;;;;;;;;;;;;22.76;66.37;99158.47;1705142;83;21031;-84
2022/07/17 11:06:23;;;;;;;;;;;;;;;22.76;65.58;99163.80;1703098;83;24625;-84
2022/07/17 11:08:56;;;;;;;;;;;;;;;22.75;65.06;99158.62;1697465;82;20358;-84
2022/07/17 11:11:24;;;;;;;;;;;;;;;22.72;64.49;99153.14;1717483;82;25584;-84
2022/07/17 11:13:49;;;;;;;;;;;;;;;22.69;64.21;99151.28;1699905;82;22082;-84
2022/07/17 11:16:27;;;;;;;;;;;;;;;22.66;63.53;99154.27;1699532;83;21020;-85
2022/07/17 11:18:54;;;;;;;;;;;;;;;22.68;62.96;99150.94;1700597;82;24667;-84
2022/07/17 11:21:20;;;;;;;;;;;;;;;22.87;62.98;99142.61;1701815;83;20526;-83
2022/07/17 11:23:53;;;;;;;;;;;;;;;22.98;62.43;99136.09;1712805;82;24740;-84
2022/07/17 11:26:23;;;;;;;;;;;;;;;23.02;62.09;99136.11;1711061;82;21922;-85
2022/07/17 11:28:54;;;;;;;;;;;;;;;23.12;61.85;99139.44;1700470;82;23646;-84
2022/07/17 11:31:22;;;;;;;;;;;;;;;23.06;61.13;99141.44;1714760;82;23754;-84
2022/07/17 11:33:53;;;;;;;;;;;;;;;22.94;60.19;99131.11;1700347;83;20802;-84
2022/07/17 11:36:19;;;;;;;;;;;;;;;22.99;59.65;99138.61;1703496;83;25371;-84
2022/07/17 11:38:46;;;;;;;;;;;;;;;23.03;59.01;99135.08;1719336;82;22073;-84
2022/07/17 11:41:12;;;;;;;;;;;;;;;23.03;58.33;99129.75;1712744;82;26041;-84
2022/07/17 11:43:42;;;;;;;;;;;;;;;23.17;58.35;99128.57;1712307;82;20229;-83
2022/07/17 11:46:08;;;;;;;;;;;;;;;23.30;58.21;99129.36;1714584;82;20512;-84
2022/07/17 11:48:34;;;;;;;;;;;;;;;23.34;57.66;99121.36;1714355;82;24740;-83
2022/07/17 11:51:00;;;;;;;;;;;;;;;23.34;57.06;99127.53;1695565;83;20249;-83
2022/07/17 11:53:35;;;;;;;;;;;;;;;23.42;56.95;99127.99;1691172;84;21212;-83
2022/07/17 11:56:02;;;;;;;;;;;;;;;23.42;56.60;99129.33;1657974;84;24478;-83
2022/07/17 11:58:28;;;;;;;;;;;;;;;23.21;55.64;99126.38;1718471;82;20332;-83
2022/07/17 12:01:02;;;;;;;;;;;;;;;23.18;55.32;99121.40;1704726;83;24868;-84
2022/07/17 12:03:28;;;;;;;;;;;;;;;23.21;55.03;99125.89;1713954;82;22196;-84
2022/07/17 12:05:57;;;;;;;;;;;;;;;23.31;55.03;99117.17;1701273;83;20804;-83
2022/07/17 12:08:23;;;;;;;;;;;;;;;23.39;54.78;99120.34;1699819;83;24528;-84
2022/07/17 12:10:51;;;;;;;;;;;;;;;23.44;54.44;99115.31;1700655;82;20380;-83
2022/07/17 12:13:18;;;;;;;;;;;;;;;23.44;54.22;99116.64;1700013;82;24997;-84
2022/07/17 12:15:46;;;;;;;;;;;;;;;23.50;54.14;99113.82;1701098;82;22219;-84
2022/07/17 12:18:23;;;;;;;;;;;;;;;23.56;53.97;99106.45;1706945;82;26850;-85
2022/07/17 12:20:50;;;;;;;;;;;;;;;23.54;53.51;99113.80;1712736;82;24436;-86
2022/07/17 12:23:27;;;;;;;;;;;;;;;23.57;53.28;99107.59;1682427;82;20445;-84
2022/07/17 12:25:55;;;;;;;;;;;;;;;23.63;53.26;99106.91;1698151;83;25494;-83
2022/07/17 12:28:20;;;;;;;;;;;;;;;23.82;53.34;99111.00;1699774;83;22007;-83
2022/07/17 12:30:46;;;;;;;;;;;;;;;23.91;53.21;99113.12;1708393;82;21040;-83
2022/07/17 12:33:17;;;;;;;;;;;;;;;24.03;53.35;99111.72;1701086;82;24434;-83
2022/07/17 12:35:40;;;;;;;;;;;;;;;24.11;53.29;99107.14;1702077;82;20207;-84
2022/07/17 12:38:16;;;;;;;;;;;;;;;24.14;53.09;99106.80;1702129;83;20250;-84
2022/07/17 12:40:37;;;;;;;;;;;;;;;24.11;52.76;99106.34;1695912;83;20175;-85
2022/07/17 12:43:03;;;;;;;;;;;;;;;24.02;52.30;99102.86;1701514;82;26025;-84
2022/07/17 12:45:29;;;;;;;;;;;;;;;23.99;51.99;99095.20;1676953;84;24085;-84